Time;durP1;ratioP1;P1;durP2;ratioP2;P2;SDS_P1;SDS_P2;PMS_P1;PMS_P2;Temp;Humidity;BMP_temperature;BMP_pressure;BME280_temperature;BME280_humidity;BME280_pressure;Samples;Min_cycle;Max_cycle;Signal;HPM_P1;HPM_P2
2023/05/23 00:14:01;;;;;;;10.50;10.20;;;18.20;99.90;;;;;;5059190;28;20234;-78
2023/05/23 00:17:38;;;;;;;10.65;10.35;;;18.10;99.90;;;;;;5065390;27;20238;-78
2023/05/23 00:20:31;;;;;;;10.50;10.20;;;18.10;99.90;;;;;;5143881;27;20314;-78
2023/05/23 00:26:55;;;;;;;;;;;;;;;;;;;;;
2023/05/23 00:30:05;;;;;;;10.60;10.30;;;18.00;99.90;;;;;;5142903;27;20230;-78
2023/05/23 00:39:03;;;;;;;10.35;10.05;;;17.90;99.90;;;;;;5141357;27;20236;-78
2023/05/23 00:41:50;;;;;;;10.10;9.80;;;17.90;99.90;;;;;;5143485;27;20227;-78
2023/05/23 00:45:02;;;;;;;10.23;9.93;;;18.00;99.90;;;;;;5143025;27;20228;-78
2023/05/23 00:47:53;;;;;;;10.45;10.15;;;18.00;99.90;;;;;;5142902;27;20246;-78
2023/05/23 00:53:42;;;;;;;10.50;10.20;;;17.90;99.90;;;;;;5141730;27;20247;-79
2023/05/23 00:56:52;;;;;;;10.45;10.15;;;17.90;99.90;;;;;;5143729;27;20322;-78
2023/05/23 01:02:40;;;;;;;10.60;10.30;;;17.80;99.90;;;;;;5142723;27;20228;-78
2023/05/23 01:09:01;;;;;;;10.50;10.20;;;17.80;99.90;;;;;;5138405;27;20712;-78
2023/05/23 01:12:42;;;;;;;10.35;10.05;;;17.80;99.90;;;;;;5143242;27;20220;-79
2023/05/23 01:19:17;;;;;;;11.00;10.70;;;17.80;99.90;;;;;;5105135;27;20250;-78
2023/05/23 01:22:17;;;;;;;10.95;10.65;;;17.80;99.90;;;;;;5132726;27;20316;-79
2023/05/23 01:25:41;;;;;;;10.43;10.13;;;17.80;99.90;;;;;;5123069;28;20224;-79
2023/05/23 01:32:30;;;;;;;10.45;10.15;;;17.60;99.90;;;;;;5132485;27;20288;-79
2023/05/23 01:35:44;;;;;;;10.10;9.80;;;17.60;99.90;;;;;;5142854;27;20255;-78
2023/05/23 01:38:52;;;;;;;10.10;9.80;;;17.60;99.90;;;;;;5141766;27;20239;-78
2023/05/23 01:41:45;;;;;;;10.15;9.85;;;17.50;99.90;;;;;;5116911;27;20252;-79
2023/05/23 01:54:15;;;;;;;10.20;9.90;;;17.50;99.90;;;;;;5143443;27;20224;-79
2023/05/23 02:00:39;;;;;;;10.10;9.80;;;17.50;99.90;;;;;;5135098;27;20216;-78
2023/05/23 02:16:51;;;;;;;9.73;9.43;;;17.40;99.90;;;;;;5129934;27;20224;-78
2023/05/23 02:22:44;;;;;;;9.75;9.45;;;17.40;99.90;;;;;;5057953;28;20235;-78
2023/05/23 02:39:23;;;;;;;9.60;9.30;;;17.10;99.90;;;;;;5054680;28;20265;-78
2023/05/23 02:42:43;;;;;;;9.48;9.18;;;17.10;99.90;;;;;;4961461;28;20233;-77
2023/05/23 02:48:52;;;;;;;9.60;9.30;;;16.90;99.90;;;;;;4908450;28;20232;-77
2023/05/23 02:51:58;;;;;;;9.50;9.20;;;16.90;99.90;;;;;;4990315;28;20298;-77
2023/05/23 02:58:30;;;;;;;9.90;9.60;;;16.80;99.90;;;;;;5001082;28;20329;-77
2023/05/23 03:08:14;;;;;;;10.70;10.40;;;16.60;99.90;;;;;;5034267;28;20241;-79
2023/05/23 03:10:43;;;;;;;10.73;10.43;;;16.60;99.90;;;;;;5083706;22;20245;-83
2023/05/23 03:13:12;;;;;;;10.80;10.50;;;16.60;99.90;;;;;;5067103;28;20276;-83
2023/05/23 03:15:40;;;;;;;10.93;10.63;;;16.60;99.90;;;;;;5065919;28;20226;-83
2023/05/23 03:18:09;;;;;;;10.82;10.52;;;16.50;99.90;;;;;;5066867;28;20234;-83
2023/05/23 03:20:38;;;;;;;11.20;10.90;;;16.60;99.90;;;;;;5080917;28;20498;-83
2023/05/23 03:23:06;;;;;;;11.07;10.77;;;16.60;99.90;;;;;;5086617;28;20284;-83
2023/05/23 03:25:36;;;;;;;11.10;10.80;;;16.60;99.90;;;;;;5086966;28;20311;-83
2023/05/23 03:28:12;;;;;;;11.10;10.80;;;16.60;99.90;;;;;;5086768;28;20234;-83
2023/05/23 03:30:40;;;;;;;11.20;10.88;;;16.60;99.90;;;;;;5086379;28;20250;-83
2023/05/23 03:33:08;;;;;;;10.73;10.43;;;16.60;99.90;;;;;;5086856;28;20226;-83
2023/05/23 03:35:35;;;;;;;10.90;10.60;;;16.50;99.90;;;;;;5086308;28;20233;-83
2023/05/23 03:38:04;;;;;;;10.90;10.60;;;16.50;99.90;;;;;;5088423;28;20324;-84
2023/05/23 03:40:33;;;;;;;10.68;10.38;;;16.40;99.90;;;;;;5085945;28;20238;-83
2023/05/23 03:43:07;;;;;;;10.60;10.30;;;16.40;99.90;;;;;;5085600;28;20372;-82
2023/05/23 03:45:35;;;;;;;10.77;10.48;;;16.30;99.90;;;;;;5092698;28;20225;-83
2023/05/23 03:48:03;;;;;;;10.45;10.15;;;16.30;99.90;;;;;;5087795;28;20218;-83
2023/05/23 03:50:30;;;;;;;10.73;10.43;;;16.20;99.90;;;;;;5085167;28;20230;-83
2023/05/23 03:53:00;;;;;;;10.45;10.15;;;16.20;99.90;;;;;;5085388;28;20297;-82
2023/05/23 03:55:30;;;;;;;10.50;10.20;;;16.20;99.90;;;;;;5086212;28;20288;-83
2023/05/23 03:57:59;;;;;;;10.70;10.40;;;16.20;99.90;;;;;;5077366;28;20296;-84
2023/05/23 04:00:31;;;;;;;10.40;10.10;;;16.30;99.90;;;;;;5066763;28;20291;-83
2023/05/23 04:02:59;;;;;;;10.48;10.18;;;16.40;99.90;;;;;;5067082;28;20234;-83
2023/05/23 04:05:27;;;;;;;10.20;9.90;;;16.40;99.90;;;;;;5068979;28;20262;-82
2023/05/23 04:07:59;;;;;;;10.30;10.00;;;16.50;99.90;;;;;;5082623;28;20292;-82
2023/05/23 04:10:28;;;;;;;10.32;10.02;;;16.50;99.90;;;;;;5084671;28;20236;-83
2023/05/23 04:12:56;;;;;;;10.43;10.13;;;16.50;99.90;;;;;;5086071;28;20260;-83
2023/05/23 04:15:27;;;;;;;10.60;10.30;;;16.50;99.90;;;;;;5086227;28;20226;-82
2023/05/23 04:17:59;;;;;;;10.35;10.05;;;16.50;99.90;;;;;;5085675;28;20222;-82
2023/05/23 04:20:27;;;;;;;10.50;10.20;;;16.50;99.90;;;;;;5091450;28;20222;-83
2023/05/23 04:22:55;;;;;;;10.52;10.23;;;16.50;99.90;;;;;;5086963;28;20230;-82
2023/05/23 04:25:25;;;;;;;10.48;10.18;;;16.40;99.90;;;;;;5087605;28;20250;-83
2023/05/23 04:27:55;;;;;;;10.55;10.25;;;16.50;99.90;;;;;;5087078;28;20230;-82
2023/05/23 04:30:24;;;;;;;10.23;9.93;;;16.50;99.90;;;;;;5087322;28;20214;-83
2023/05/23 04:32:53;;;;;;;10.20;9.90;;;16.40;99.90;;;;;;5088855;28;20257;-82
2023/05/23 04:35:25;;;;;;;10.27;9.98;;;16.40;99.90;;;;;;5090938;28;20256;-82
2023/05/23 04:37:55;;;;;;;10.07;9.77;;;16.50;99.90;;;;;;5089087;28;20230;-82
2023/05/23 04:40:23;;;;;;;9.93;9.63;;;16.50;99.90;;;;;;5088259;28;20225;-83
2023/05/23 04:42:51;;;;;;;10.10;9.80;;;16.50;99.90;;;;;;5087506;28;20226;-82
2023/05/23 04:45:20;;;;;;;10.10;9.80;;;16.50;99.90;;;;;;5090569;28;20260;-82
2023/05/23 04:47:50;;;;;;;10.02;9.73;;;16.50;99.90;;;;;;5090332;28;20230;-83
2023/05/23 04:50:21;;;;;;;10.38;10.07;;;16.50;99.90;;;;;;5088166;28;20261;-82
2023/05/23 04:52:51;;;;;;;10.35;10.05;;;16.50;99.90;;;;;;5085262;28;20248;-82
2023/05/23 04:55:19;;;;;;;10.27;9.98;;;16.50;99.90;;;;;;5084912;28;20341;-82
2023/05/23 04:57:49;;;;;;;10.50;10.20;;;16.50;99.90;;;;;;5085187;28;20221;-83
2023/05/23 05:00:26;;;;;;;10.50;10.20;;;16.50;99.90;;;;;;5085312;28;20241;-83
2023/05/23 05:02:55;;;;;;;10.20;9.90;;;16.50;99.90;;;;;;5085545;28;20237;-82
2023/05/23 05:05:24;;;;;;;10.48;10.18;;;16.50;99.90;;;;;;5088264;28;20234;-82
2023/05/23 05:07:55;;;;;;;10.80;10.50;;;16.60;99.90;;;;;;5087742;28;20412;-83
2023/05/23 05:10:24;;;;;;;10.60;10.30;;;16.60;99.90;;;;;;5090250;28;20234;-84
2023/05/23 05:12:53;;;;;;;10.80;10.50;;;16.70;99.90;;;;;;5088790;28;20234;-84
2023/05/23 05:15:23;;;;;;;10.88;10.57;;;16.80;99.90;;;;;;5078058;28;20235;-84
2023/05/23 05:17:52;;;;;;;10.88;10.57;;;16.90;99.90;;;;;;5068135;28;20262;-85
2023/05/23 05:20:22;;;;;;;10.60;10.30;;;17.00;99.90;;;;;;5082327;28;20225;-84
2023/05/23 05:23:02;;;;;;;10.85;10.55;;;17.00;99.90;;;;;;5076904;28;20317;-84
2023/05/23 05:25:31;;;;;;;11.00;10.70;;;17.00;99.90;;;;;;5067126;28;20285;-84
2023/05/23 05:28:00;;;;;;;11.00;10.70;;;17.10;99.90;;;;;;5064996;28;20227;-84
2023/05/23 05:30:29;;;;;;;11.00;10.70;;;17.00;99.90;;;;;;5064821;28;20254;-84
2023/05/23 05:32:57;;;;;;;11.30;10.90;;;17.10;99.90;;;;;;5064147;28;20227;-86
2023/05/23 05:35:27;;;;;;;11.40;11.00;;;17.10;99.90;;;;;;5065398;28;20262;-83
2023/05/23 05:37:56;;;;;;;11.15;10.77;;;17.10;99.90;;;;;;5064501;28;20222;-83
2023/05/23 05:40:29;;;;;;;11.20;10.80;;;17.20;99.90;;;;;;5068042;28;20250;-83
2023/05/23 05:42:56;;;;;;;11.02;10.73;;;17.30;99.90;;;;;;5064714;28;20257;-83
2023/05/23 05:45:25;;;;;;;11.13;10.82;;;17.30;99.90;;;;;;5064865;28;20265;-83
2023/05/23 05:47:54;;;;;;;11.02;10.73;;;17.40;99.90;;;;;;5064999;28;20663;-83
2023/05/23 05:50:23;;;;;;;11.32;10.95;;;17.30;99.90;;;;;;5064361;28;20230;-83
2023/05/23 05:52:53;;;;;;;11.00;10.70;;;17.40;99.90;;;;;;5064021;28;20241;-80
2023/05/23 05:55:22;;;;;;;11.07;10.77;;;17.40;99.90;;;;;;5062682;28;20265;-79
2023/05/23 05:57:53;;;;;;;11.10;10.80;;;17.50;99.90;;;;;;5067282;28;20230;-80
2023/05/23 06:00:21;;;;;;;11.07;10.77;;;17.60;99.90;;;;;;5063458;28;20234;-78
2023/05/23 06:02:50;;;;;;;11.00;10.70;;;17.80;99.90;;;;;;5061081;28;20317;-77
2023/05/23 06:05:17;;;;;;;10.80;10.50;;;17.80;99.90;;;;;;5060712;28;20234;-77
2023/05/23 06:07:45;;;;;;;10.95;10.65;;;17.90;99.90;;;;;;5061077;28;20306;-78
2023/05/23 06:10:13;;;;;;;10.77;10.48;;;18.00;99.90;;;;;;5061695;28;20226;-81
2023/05/23 06:12:42;;;;;;;10.95;10.65;;;18.10;99.90;;;;;;5064367;28;20238;-81
2023/05/23 06:15:14;;;;;;;11.05;10.75;;;18.20;99.90;;;;;;5065438;28;20306;-81
2023/05/23 06:17:43;;;;;;;11.50;11.10;;;18.30;99.90;;;;;;5067384;28;20230;-81
2023/05/23 06:20:12;;;;;;;11.10;10.80;;;18.40;99.90;;;;;;5070924;28;20219;-81
2023/05/23 06:22:40;;;;;;;11.18;10.82;;;18.40;99.90;;;;;;5066759;28;20227;-82
2023/05/23 06:25:08;;;;;;;11.43;11.02;;;18.40;99.90;;;;;;5071916;28;20258;-82
2023/05/23 06:27:37;;;;;;;11.65;11.25;;;18.50;99.90;;;;;;5066296;28;20265;-81
2023/05/23 06:30:07;;;;;;;11.00;10.70;;;18.50;99.90;;;;;;5066535;28;20241;-80
2023/05/23 06:32:45;;;;;;;11.15;10.80;;;18.50;99.90;;;;;;5065579;28;21113;-82
2023/05/23 06:35:16;;;;;;;11.45;11.05;;;18.50;99.90;;;;;;5067675;28;20329;-80
2023/05/23 06:37:44;;;;;;;11.55;11.15;;;18.50;99.90;;;;;;5066981;28;20227;-81
2023/05/23 06:40:14;;;;;;;11.00;10.70;;;18.50;99.90;;;;;;5067979;28;20270;-82
2023/05/23 06:42:43;;;;;;;11.63;11.23;;;18.60;99.90;;;;;;5086425;28;20238;-81
2023/05/23 06:45:13;;;;;;;11.13;10.80;;;18.80;99.90;;;;;;5072955;28;20234;-81
2023/05/23 06:47:44;;;;;;;11.10;10.80;;;18.90;99.90;;;;;;5066831;28;20250;-81
2023/05/23 06:50:12;;;;;;;11.02;10.73;;;19.00;99.90;;;;;;5065292;28;20231;-80
2023/05/23 06:52:42;;;;;;;11.55;11.15;;;19.00;99.90;;;;;;5065224;28;20313;-80
2023/05/23 06:55:13;;;;;;;11.18;10.85;;;19.10;99.90;;;;;;5064917;28;20318;-79
2023/05/23 06:57:40;;;;;;;11.15;10.80;;;19.10;99.90;;;;;;5065120;28;20308;-80
2023/05/23 07:00:10;;;;;;;10.80;10.50;;;19.20;99.90;;;;;;5064987;28;20245;-80
2023/05/23 07:02:38;;;;;;;11.25;10.85;;;19.20;99.90;;;;;;5081665;28;20266;-81
2023/05/23 07:05:10;;;;;;;11.45;11.05;;;19.20;99.90;;;;;;5084811;28;20226;-80
2023/05/23 07:07:38;;;;;;;11.50;11.10;;;19.20;99.90;;;;;;5084585;28;20226;-80
2023/05/23 07:10:07;;;;;;;11.63;11.23;;;19.10;99.90;;;;;;5084392;28;20269;-80
2023/05/23 07:12:35;;;;;;;11.05;10.75;;;19.00;99.90;;;;;;5083288;28;20234;-80
2023/05/23 07:15:03;;;;;;;11.85;11.45;;;19.00;99.90;;;;;;5091906;28;20230;-80
2023/05/23 07:17:32;;;;;;;11.52;11.13;;;19.00;99.90;;;;;;5089116;28;20226;-80
2023/05/23 07:19:59;;;;;;;11.57;11.18;;;19.10;99.90;;;;;;5083332;28;20281;-81
2023/05/23 07:22:28;;;;;;;11.63;11.23;;;19.10;99.90;;;;;;5077018;28;20241;-80
2023/05/23 07:24:56;;;;;;;11.25;10.90;;;19.10;99.90;;;;;;5084834;28;20240;-79
2023/05/23 07:27:24;;;;;;;11.48;11.07;;;19.00;99.90;;;;;;5084183;28;20232;-81
2023/05/23 07:29:52;;;;;;;11.30;10.90;;;18.90;99.90;;;;;;5075465;28;20230;-80
2023/05/23 07:32:22;;;;;;;11.57;11.18;;;18.90;99.90;;;;;;5071536;28;20288;-80
2023/05/23 07:34:54;;;;;;;11.18;10.88;;;18.90;99.90;;;;;;5085129;28;20256;-80
2023/05/23 07:37:22;;;;;;;11.50;11.10;;;18.80;99.90;;;;;;5064560;28;20223;-80
2023/05/23 07:39:52;;;;;;;10.98;10.68;;;18.80;99.90;;;;;;5063451;28;20296;-81
2023/05/23 07:42:21;;;;;;;11.02;10.73;;;18.90;99.90;;;;;;5064998;28;20816;-82
2023/05/23 07:44:51;;;;;;;11.00;10.70;;;18.80;99.90;;;;;;5064701;28;20234;-81
2023/05/23 07:47:20;;;;;;;11.00;10.70;;;18.70;99.90;;;;;;5065469;28;20226;-82
2023/05/23 07:49:50;;;;;;;11.00;10.70;;;18.60;99.90;;;;;;5065510;28;20245;-82
2023/05/23 07:52:19;;;;;;;10.90;10.60;;;18.50;99.90;;;;;;5069837;28;20238;-82
2023/05/23 07:54:49;;;;;;;11.00;10.70;;;18.40;99.90;;;;;;5077909;28;20235;-83
2023/05/23 07:57:20;;;;;;;11.00;10.70;;;18.50;99.90;;;;;;5065585;28;20241;-82
2023/05/23 07:59:48;;;;;;;11.43;11.02;;;18.70;99.90;;;;;;5065211;28;20234;-87
2023/05/23 08:02:17;;;;;;;10.75;10.45;;;19.00;99.90;;;;;;5065698;28;20231;-85
2023/05/23 08:04:46;;;;;;;10.95;10.65;;;19.30;99.90;;;;;;5065536;28;20223;-85
2023/05/23 08:07:15;;;;;;;10.95;10.65;;;19.50;99.90;;;;;;5064958;28;21071;-84
2023/05/23 08:09:49;;;;;;;11.18;10.88;;;19.50;99.90;;;;;;5070900;28;20263;-86
2023/05/23 08:12:36;;;;;;;11.05;10.75;;;19.50;99.90;;;;;;5065810;28;20230;-82
2023/05/23 08:15:07;;;;;;;10.88;10.57;;;19.60;99.90;;;;;;5065440;28;20241;-84
2023/05/23 08:17:35;;;;;;;11.30;10.90;;;19.80;99.90;;;;;;5073462;28;20288;-84
2023/05/23 08:20:04;;;;;;;10.93;10.63;;;20.20;99.90;;;;;;5086623;28;20233;-84
2023/05/23 08:22:31;;;;;;;10.80;10.50;;;20.10;99.90;;;;;;5096525;28;20293;-85
2023/05/23 08:25:01;;;;;;;11.20;10.90;;;20.00;99.90;;;;;;5100363;28;20242;-84
2023/05/23 08:27:31;;;;;;;11.18;10.88;;;19.90;99.90;;;;;;5096304;28;20226;-80
2023/05/23 08:30:01;;;;;;;11.13;10.82;;;19.80;99.90;;;;;;5063343;28;20239;-79
2023/05/23 08:32:29;;;;;;;10.68;10.38;;;19.80;99.90;;;;;;5073523;28;21047;-78
2023/05/23 08:34:57;;;;;;;10.70;10.40;;;19.80;99.90;;;;;;5075525;28;20254;-79
2023/05/23 08:37:25;;;;;;;10.80;10.50;;;19.80;99.90;;;;;;5078598;28;20253;-79
2023/05/23 08:39:52;;;;;;;10.65;10.35;;;20.10;99.90;;;;;;5081865;28;20234;-79
2023/05/23 08:42:20;;;;;;;10.82;10.52;;;20.40;99.90;;;;;;5082158;28;20241;-78
2023/05/23 08:44:47;;;;;;;10.70;10.40;;;20.60;99.90;;;;;;5082362;28;20242;-78
2023/05/23 08:47:17;;;;;;;10.48;10.18;;;20.70;99.90;;;;;;5079703;28;20330;-80
2023/05/23 08:49:46;;;;;;;10.85;10.55;;;20.60;99.90;;;;;;5071607;28;20294;-79
2023/05/23 08:52:18;;;;;;;10.80;10.50;;;20.30;99.90;;;;;;5077712;28;20325;-79
2023/05/23 08:54:46;;;;;;;10.60;10.30;;;20.10;99.90;;;;;;5079910;28;20225;-79
2023/05/23 08:57:14;;;;;;;10.63;10.32;;;19.70;99.90;;;;;;5084211;28;20384;-80
2023/05/23 08:59:42;;;;;;;11.30;11.00;;;19.60;99.90;;;;;;5069719;28;20234;-79
2023/05/23 09:02:12;;;;;;;11.18;10.88;;;19.60;99.90;;;;;;5064554;28;20235;-80
2023/05/23 09:04:41;;;;;;;11.35;10.95;;;19.70;99.90;;;;;;5082984;28;20234;-80
2023/05/23 09:07:12;;;;;;;11.13;10.82;;;19.90;99.90;;;;;;5091274;28;20250;-79
2023/05/23 09:09:45;;;;;;;11.02;10.73;;;20.10;99.90;;;;;;5106229;22;20222;-84
2023/05/23 09:12:21;;;;;;;11.00;10.70;;;20.30;99.90;;;;;;5107572;28;20249;-84
2023/05/23 09:14:50;;;;;;;10.70;10.40;;;20.40;99.90;;;;;;5106194;28;20235;-84
2023/05/23 09:17:21;;;;;;;10.65;10.35;;;20.20;99.90;;;;;;5105764;28;20240;-84
2023/05/23 09:19:51;;;;;;;10.30;10.00;;;20.30;99.90;;;;;;5105417;28;20230;-83
2023/05/23 09:22:28;;;;;;;10.40;10.10;;;20.40;99.90;;;;;;5105556;28;20233;-83
2023/05/23 09:24:57;;;;;;;10.40;10.10;;;20.30;99.90;;;;;;5105037;28;20233;-84
2023/05/23 09:27:26;;;;;;;10.27;9.98;;;20.50;99.90;;;;;;5105831;28;20217;-87
2023/05/23 09:29:55;;;;;;;10.40;10.10;;;20.30;99.90;;;;;;5103917;28;20229;-87
2023/05/23 09:32:40;;;;;;;10.50;10.20;;;20.50;99.90;;;;;;5104785;28;20229;-85
2023/05/23 09:35:29;;;;;;;10.70;10.40;;;20.80;99.90;;;;;;5104146;28;20225;-85
2023/05/23 09:37:59;;;;;;;10.85;10.55;;;20.70;99.90;;;;;;5103684;28;20218;-85
2023/05/23 09:40:37;;;;;;;11.07;10.77;;;20.40;99.90;;;;;;5106952;28;20230;-86
2023/05/23 09:43:08;;;;;;;10.52;10.23;;;20.30;99.90;;;;;;5107393;28;20233;-87
2023/05/23 09:45:36;;;;;;;10.90;10.60;;;20.30;99.90;;;;;;5113161;28;20252;-86
2023/05/23 09:48:05;;;;;;;10.60;10.30;;;20.70;99.90;;;;;;5110825;28;20217;-85
2023/05/23 09:51:04;;;;;;;10.57;10.27;;;20.90;99.90;;;;;;5105981;28;20229;-86
2023/05/23 10:03:21;;;;;;;10.52;10.23;;;20.80;99.90;;;;;;5051316;28;20247;-87
2023/05/23 10:05:58;;;;;;;10.50;10.20;;;20.90;99.90;;;;;;5102099;28;20225;-86
2023/05/23 10:08:31;;;;;;;10.35;10.05;;;21.00;99.90;;;;;;5102456;28;20259;-86
2023/05/23 10:14:40;;;;;;;10.40;10.10;;;20.80;99.90;;;;;;5101789;28;20213;-86
2023/05/23 10:17:17;;;;;;;10.40;10.10;;;20.60;99.90;;;;;;5102069;28;20332;-86
2023/05/23 10:19:59;;;;;;;10.15;9.85;;;20.90;99.90;;;;;;5101779;28;20280;-87
2023/05/23 10:22:34;;;;;;;10.10;9.80;;;21.10;99.90;;;;;;5103157;28;20233;-86
2023/05/23 10:25:04;;;;;;;10.32;10.02;;;21.00;99.90;;;;;;5117214;28;20224;-86
2023/05/23 10:27:32;;;;;;;10.38;10.07;;;21.10;99.90;;;;;;5117954;28;20214;-86
2023/05/23 10:30:10;;;;;;;10.80;10.50;;;21.30;99.90;;;;;;5102385;28;20229;-86
2023/05/23 10:32:42;;;;;;;10.30;10.00;;;21.30;99.90;;;;;;5101883;28;20698;-86
2023/05/23 10:35:20;;;;;;;10.43;10.13;;;21.40;99.90;;;;;;5102260;28;20225;-87
2023/05/23 10:40:53;;;;;;;10.55;10.25;;;21.00;99.90;;;;;;5100357;28;20221;-86
2023/05/23 10:46:17;;;;;;;10.43;10.13;;;20.50;99.90;;;;;;5101530;28;20234;-87
2023/05/23 10:48:47;;;;;;;10.50;10.20;;;20.50;99.90;;;;;;5101856;28;20241;-86
2023/05/23 10:54:15;;;;;;;10.85;10.55;;;20.20;99.90;;;;;;5101604;28;20217;-87
2023/05/23 10:56:42;;;;;;;10.80;10.50;;;20.00;99.90;;;;;;5102222;28;20233;-87
2023/05/23 10:59:22;;;;;;;10.75;10.45;;;20.10;99.90;;;;;;5102535;28;20240;-88
2023/05/23 11:01:52;;;;;;;10.63;10.32;;;20.40;99.90;;;;;;5105675;28;20251;-87
2023/05/23 11:04:29;;;;;;;10.65;10.35;;;20.60;99.90;;;;;;5105996;28;20243;-88
2023/05/23 11:07:01;;;;;;;10.68;10.38;;;20.70;99.90;;;;;;5105204;28;20217;-87
2023/05/23 11:12:50;;;;;;;10.40;10.10;;;20.40;99.90;;;;;;5104006;28;20292;-87
2023/05/23 11:15:26;;;;;;;10.77;10.48;;;20.20;99.90;;;;;;5105271;28;20295;-87
2023/05/23 11:17:59;;;;;;;11.10;10.80;;;20.10;99.90;;;;;;5105169;28;20240;-87
2023/05/23 11:20:35;;;;;;;10.90;10.60;;;19.80;99.90;;;;;;5105393;28;20240;-87
2023/05/23 11:23:12;;;;;;;10.77;10.48;;;19.50;99.90;;;;;;5106439;28;20221;-87
2023/05/23 11:25:51;;;;;;;10.90;10.60;;;19.30;99.90;;;;;;5105387;28;20235;-87
2023/05/23 11:28:20;;;;;;;10.50;10.20;;;19.30;99.90;;;;;;5105187;28;20278;-88
2023/05/23 11:30:51;;;;;;;10.73;10.43;;;19.50;99.90;;;;;;5104642;28;20233;-87
2023/05/23 11:33:19;;;;;;;10.65;10.35;;;20.10;99.90;;;;;;5104677;28;20244;-87
2023/05/23 11:35:50;;;;;;;10.35;10.05;;;20.50;99.90;;;;;;5104599;28;20344;-86
2023/05/23 11:38:18;;;;;;;10.50;10.20;;;20.70;99.90;;;;;;5104240;28;20281;-88
2023/05/23 11:40:50;;;;;;;10.00;9.70;;;20.60;99.90;;;;;;5104241;28;20236;-87
2023/05/23 11:43:25;;;;;;;9.75;9.45;;;20.50;99.90;;;;;;5104622;28;20244;-87
2023/05/23 11:45:55;;;;;;;9.95;9.65;;;20.20;99.90;;;;;;5104689;28;20231;-87
2023/05/23 11:48:24;;;;;;;10.07;9.77;;;20.00;99.90;;;;;;5103989;28;20283;-88
2023/05/23 11:50:55;;;;;;;10.50;10.20;;;20.10;99.90;;;;;;5103881;28;20288;-87
2023/05/23 11:53:32;;;;;;;10.30;10.00;;;19.80;99.90;;;;;;5114112;28;20221;-87
2023/05/23 11:56:13;;;;;;;10.50;10.20;;;19.60;99.90;;;;;;5107738;28;20210;-87
2023/05/23 11:58:41;;;;;;;10.60;10.30;;;19.30;99.90;;;;;;5105298;28;20225;-87
2023/05/23 12:15:06;;;;;;;10.63;10.32;;;19.40;99.90;;;;;;5002163;28;20236;-85
2023/05/23 12:18:38;;;;;;;;;;;;;;;;;;;;;
2023/05/23 12:24:32;;;;;;;10.40;10.10;;;20.00;99.90;;;;;;5030566;28;20224;-86
2023/05/23 12:27:42;;;;;;;10.70;10.40;;;20.00;99.90;;;;;;5087251;28;20226;-86
2023/05/23 12:30:23;;;;;;;10.23;9.93;;;19.90;99.90;;;;;;5092035;28;20283;-86
2023/05/23 12:33:00;;;;;;;10.00;9.70;;;19.80;99.90;;;;;;5100675;28;20217;-86
2023/05/23 12:35:59;;;;;;;9.90;9.60;;;19.70;99.90;;;;;;5106099;28;20222;-86
2023/05/23 12:38:52;;;;;;;9.90;9.60;;;19.60;99.90;;;;;;5103973;28;20287;-86
2023/05/23 12:44:10;;;;;;;9.57;9.27;;;19.70;99.90;;;;;;5101950;28;20320;-85
2023/05/23 12:59:21;;;;;;;10.32;10.02;;;19.40;99.90;;;;;;5105412;28;20220;-86
2023/05/23 13:02:00;;;;;;;10.20;9.90;;;19.40;99.90;;;;;;5107730;28;20272;-86
2023/05/23 13:07:39;;;;;;;10.50;10.20;;;19.40;99.90;;;;;;5107788;28;20213;-85
2023/05/23 13:10:11;;;;;;;9.70;9.40;;;19.30;99.90;;;;;;5108903;28;20215;-85
2023/05/23 13:27:33;;;;;;;9.88;9.57;;;19.10;99.90;;;;;;5107024;28;20217;-86
2023/05/23 13:40:51;;;;;;;9.88;9.57;;;19.00;99.90;;;;;;4983452;28;20236;-83
2023/05/23 13:43:19;;;;;;;10.02;9.73;;;19.00;99.90;;;;;;5005272;28;20229;-83
2023/05/23 13:45:47;;;;;;;9.75;9.45;;;19.10;99.90;;;;;;5047015;28;20337;-83
2023/05/23 13:48:27;;;;;;;9.68;9.38;;;19.20;99.90;;;;;;5083374;28;20249;-83
2023/05/23 13:50:56;;;;;;;9.90;9.60;;;19.20;99.90;;;;;;5083737;28;20238;-83
2023/05/23 13:53:24;;;;;;;9.90;9.60;;;19.30;99.90;;;;;;5084424;28;20226;-83
2023/05/23 13:56:04;;;;;;;10.00;9.70;;;19.50;99.90;;;;;;5083466;28;20226;-84
2023/05/23 13:58:33;;;;;;;10.23;9.93;;;19.90;99.90;;;;;;5085275;28;20221;-84
2023/05/23 14:01:03;;;;;;;10.32;10.02;;;20.30;99.90;;;;;;5102525;28;20225;-83
2023/05/23 14:03:31;;;;;;;9.95;9.65;;;20.60;99.90;;;;;;5110188;28;20237;-83
2023/05/23 14:06:03;;;;;;;9.90;9.60;;;20.50;99.90;;;;;;5110182;28;20240;-83
2023/05/23 14:08:31;;;;;;;9.55;9.25;;;20.40;99.90;;;;;;5105731;28;20310;-86
2023/05/23 14:13:48;;;;;;;10.27;9.98;;;19.70;99.90;;;;;;5105137;28;20209;-79
2023/05/23 14:16:19;;;;;;;10.20;9.90;;;19.60;99.90;;;;;;5111342;28;20240;-81
2023/05/23 14:19:09;;;;;;;10.13;9.82;;;19.60;99.90;;;;;;5107754;28;20222;-83
2023/05/23 14:25:19;;;;;;;10.10;9.80;;;19.60;99.90;;;;;;5106879;28;20221;-83
2023/05/23 14:28:01;;;;;;;10.20;9.90;;;19.60;99.90;;;;;;5069330;28;20295;-82
2023/05/23 14:30:42;;;;;;;10.35;10.05;;;19.40;99.90;;;;;;5104288;28;20225;-82
2023/05/23 14:33:48;;;;;;;10.20;9.90;;;19.50;99.90;;;;;;5104954;28;20233;-83
2023/05/23 14:42:58;;;;;;;9.90;9.60;;;19.20;99.90;;;;;;5099469;28;20281;-83
2023/05/23 14:45:44;;;;;;;9.65;9.35;;;19.30;99.90;;;;;;5086845;28;20257;-83
2023/05/23 14:51:49;;;;;;;9.30;9.00;;;19.30;99.90;;;;;;5104140;28;20240;-83
2023/05/23 14:54:25;;;;;;;9.40;9.10;;;19.40;99.90;;;;;;5090835;28;20226;-84
2023/05/23 14:57:20;;;;;;;9.45;9.15;;;19.60;99.90;;;;;;5088769;28;20222;-84
2023/05/23 15:21:47;;;;;;;9.00;8.80;;;20.50;99.90;;;;;;5138222;22;20244;-85
2023/05/23 15:24:17;;;;;;;9.20;8.90;;;20.50;99.90;;;;;;5089777;28;20245;-84
2023/05/23 15:26:45;;;;;;;9.40;9.10;;;20.50;99.90;;;;;;5089585;28;20244;-82
2023/05/23 15:29:16;;;;;;;9.20;8.90;;;20.70;99.90;;;;;;5089279;28;20234;-83
2023/05/23 15:31:44;;;;;;;9.40;9.10;;;20.50;99.90;;;;;;5089514;28;20297;-84
2023/05/23 15:48:20;;;;;;;9.77;9.48;;;18.90;99.90;;;;;;5108144;28;20239;-86
2023/05/23 15:50:48;;;;;;;9.40;9.10;;;18.90;99.90;;;;;;5109257;28;20241;-80
2023/05/23 15:56:05;;;;;;;9.23;8.93;;;18.70;99.90;;;;;;5107291;28;20213;-83
2023/05/23 15:58:35;;;;;;;8.82;8.63;;;18.70;99.90;;;;;;5107757;28;20297;-82
2023/05/23 16:01:03;;;;;;;8.80;8.60;;;18.50;99.90;;;;;;5104110;28;20241;-81
2023/05/23 16:03:33;;;;;;;8.90;8.70;;;18.50;99.90;;;;;;5105833;28;20257;-83
2023/05/23 16:06:08;;;;;;;9.00;8.80;;;18.60;99.90;;;;;;5112643;28;20227;-84
2023/05/23 16:09:24;;;;;;;9.30;9.00;;;18.60;99.90;;;;;;5116688;27;20221;-81
2023/05/23 16:11:55;;;;;;;9.18;8.90;;;18.50;99.90;;;;;;5110345;28;20238;-83
2023/05/23 16:14:25;;;;;;;9.35;9.05;;;18.60;99.90;;;;;;5109985;28;20277;-83
2023/05/23 16:16:53;;;;;;;8.90;8.70;;;18.40;99.90;;;;;;5111076;28;20236;-83
2023/05/23 16:19:23;;;;;;;8.90;8.70;;;18.40;99.90;;;;;;5105081;28;20260;-83
2023/05/23 16:21:53;;;;;;;8.90;8.70;;;18.40;99.90;;;;;;5089339;28;20237;-85
2023/05/23 16:24:30;;;;;;;8.85;8.65;;;18.40;99.90;;;;;;5082650;28;20226;-83
2023/05/23 16:27:00;;;;;;;8.60;8.40;;;18.30;99.90;;;;;;5098932;28;21081;-82
2023/05/23 16:29:29;;;;;;;8.60;8.40;;;18.20;99.90;;;;;;5101293;28;20225;-81
2023/05/23 16:32:00;;;;;;;9.18;8.98;;;18.10;99.90;;;;;;5096759;28;20238;-85
2023/05/23 16:34:29;;;;;;;9.10;8.90;;;17.90;99.90;;;;;;5081810;28;20218;-84
2023/05/23 16:36:58;;;;;;;9.35;9.05;;;17.80;99.90;;;;;;5081570;28;20238;-83
2023/05/23 16:39:29;;;;;;;9.25;8.98;;;17.70;99.90;;;;;;5082379;28;20294;-84
2023/05/23 16:41:57;;;;;;;9.10;8.90;;;17.60;99.90;;;;;;5086426;28;20234;-83
2023/05/23 16:44:27;;;;;;;9.13;8.90;;;17.60;99.90;;;;;;5081645;28;20234;-84
2023/05/23 16:46:56;;;;;;;9.35;9.05;;;17.60;99.90;;;;;;5079128;28;20233;-83
2023/05/23 16:49:25;;;;;;;8.95;8.75;;;17.50;99.90;;;;;;5085730;28;20241;-81
2023/05/23 16:51:55;;;;;;;9.00;8.80;;;17.60;99.90;;;;;;5085573;28;20234;-83
2023/05/23 16:54:24;;;;;;;9.38;9.07;;;17.50;99.90;;;;;;5080955;28;20234;-84
2023/05/23 16:57:00;;;;;;;8.88;8.68;;;17.40;99.90;;;;;;5088280;28;20226;-84
2023/05/23 16:59:32;;;;;;;8.90;8.70;;;17.30;99.90;;;;;;5087347;28;20330;-84
2023/05/23 17:02:00;;;;;;;8.68;8.48;;;17.20;99.90;;;;;;5082155;28;20241;-83
2023/05/23 17:04:28;;;;;;;8.90;8.70;;;17.30;99.90;;;;;;5081110;28;20289;-83
2023/05/23 17:06:56;;;;;;;8.73;8.52;;;17.30;99.90;;;;;;5083834;28;20288;-84
2023/05/23 17:09:24;;;;;;;9.00;8.80;;;17.30;99.90;;;;;;5088384;28;20321;-85
2023/05/23 17:11:53;;;;;;;8.90;8.70;;;17.10;99.90;;;;;;5088877;28;20296;-84